sensor_id;sensor_type;location;lat;lon;timestamp;P1;durP1;ratioP1;P2;durP2;ratioP2
62580;SDS011;48640;48.770;9.148;2023-05-10T00:00:39;3.38;;;1.20;;
62580;SDS011;48640;48.770;9.148;2023-05-10T00:03:06;2.00;;;0.82;;
62580;SDS011;48640;48.770;9.148;2023-05-10T00:05:33;2.75;;;0.90;;
62580;SDS011;48640;48.770;9.148;2023-05-10T00:07:59;1.55;;;0.88;;
62580;SDS011;48640;48.770;9.148;2023-05-10T00:10:26;2.67;;;0.88;;
62580;SDS011;48640;48.770;9.148;2023-05-10T00:12:53;1.33;;;0.80;;
62580;SDS011;48640;48.770;9.148;2023-05-10T00:15:20;1.90;;;0.50;;
62580;SDS011;48640;48.770;9.148;2023-05-10T00:17:48;0.75;;;0.50;;
62580;SDS011;48640;48.770;9.148;2023-05-10T00:20:15;1.00;;;0.50;;
62580;SDS011;48640;48.770;9.148;2023-05-10T00:22:42;1.60;;;0.60;;
62580;SDS011;48640;48.770;9.148;2023-05-10T00:25:09;1.42;;;0.50;;
62580;SDS011;48640;48.770;9.148;2023-05-10T00:27:36;0.47;;;0.28;;
62580;SDS011;48640;48.770;9.148;2023-05-10T00:30:03;0.77;;;0.50;;
62580;SDS011;48640;48.770;9.148;2023-05-10T00:32:31;0.50;;;0.30;;
62580;SDS011;48640;48.770;9.148;2023-05-10T00:34:59;0.98;;;0.30;;
62580;SDS011;48640;48.770;9.148;2023-05-10T00:37:26;0.75;;;0.65;;
62580;SDS011;48640;48.770;9.148;2023-05-10T00:39:52;1.30;;;0.30;;
62580;SDS011;48640;48.770;9.148;2023-05-10T00:42:19;1.73;;;0.35;;
62580;SDS011;48640;48.770;9.148;2023-05-10T00:44:47;1.30;;;0.43;;
62580;SDS011;48640;48.770;9.148;2023-05-10T00:47:14;4.47;;;0.98;;
62580;SDS011;48640;48.770;9.148;2023-05-10T00:49:41;2.40;;;0.38;;
62580;SDS011;48640;48.770;9.148;2023-05-10T00:52:10;0.10;;;0.10;;
62580;SDS011;48640;48.770;9.148;2023-05-10T00:54:37;1.23;;;0.25;;
62580;SDS011;48640;48.770;9.148;2023-05-10T00:57:04;1.75;;;0.55;;
62580;SDS011;48640;48.770;9.148;2023-05-10T00:59:31;0.10;;;0.10;;
62580;SDS011;48640;48.770;9.148;2023-05-10T01:01:58;0.60;;;0.22;;
62580;SDS011;48640;48.770;9.148;2023-05-10T01:04:25;0.13;;;0.10;;
62580;SDS011;48640;48.770;9.148;2023-05-10T01:06:52;0.10;;;0.10;;
62580;SDS011;48640;48.770;9.148;2023-05-10T01:09:20;1.48;;;0.22;;
62580;SDS011;48640;48.770;9.148;2023-05-10T01:11:48;0.22;;;0.15;;
62580;SDS011;48640;48.770;9.148;2023-05-10T01:14:16;0.85;;;0.20;;
62580;SDS011;48640;48.770;9.148;2023-05-10T01:16:44;0.80;;;0.30;;
62580;SDS011;48640;48.770;9.148;2023-05-10T01:19:15;0.57;;;0.30;;
62580;SDS011;48640;48.770;9.148;2023-05-10T01:21:48;1.08;;;0.30;;
62580;SDS011;48640;48.770;9.148;2023-05-10T01:24:26;0.30;;;0.20;;
62580;SDS011;48640;48.770;9.148;2023-05-10T01:27:20;0.13;;;0.13;;
62580;SDS011;48640;48.770;9.148;2023-05-10T01:33:03;0.85;;;0.25;;
62580;SDS011;48640;48.770;9.148;2023-05-10T01:35:37;3.10;;;0.28;;
62580;SDS011;48640;48.770;9.148;2023-05-10T01:38:09;0.90;;;0.30;;
62580;SDS011;48640;48.770;9.148;2023-05-10T01:40:48;0.55;;;0.38;;
62580;SDS011;48640;48.770;9.148;2023-05-10T01:43:28;1.08;;;0.20;;
62580;SDS011;48640;48.770;9.148;2023-05-10T01:45:59;0.30;;;0.20;;
62580;SDS011;48640;48.770;9.148;2023-05-10T01:48:36;0.95;;;0.40;;
62580;SDS011;48640;48.770;9.148;2023-05-10T01:51:05;0.80;;;0.25;;
62580;SDS011;48640;48.770;9.148;2023-05-10T01:53:33;1.20;;;0.30;;
62580;SDS011;48640;48.770;9.148;2023-05-10T01:56:03;0.20;;;0.17;;
62580;SDS011;48640;48.770;9.148;2023-05-10T01:58:32;0.20;;;0.20;;
62580;SDS011;48640;48.770;9.148;2023-05-10T02:01:03;0.93;;;0.30;;
62580;SDS011;48640;48.770;9.148;2023-05-10T02:03:32;1.60;;;0.30;;
62580;SDS011;48640;48.770;9.148;2023-05-10T02:06:03;0.30;;;0.17;;
62580;SDS011;48640;48.770;9.148;2023-05-10T02:08:31;1.55;;;0.40;;
62580;SDS011;48640;48.770;9.148;2023-05-10T02:10:58;0.52;;;0.20;;
62580;SDS011;48640;48.770;9.148;2023-05-10T02:13:26;0.57;;;0.50;;
62580;SDS011;48640;48.770;9.148;2023-05-10T02:15:55;0.43;;;0.30;;
62580;SDS011;48640;48.770;9.148;2023-05-10T02:18:23;0.65;;;0.30;;
62580;SDS011;48640;48.770;9.148;2023-05-10T02:20:51;0.47;;;0.28;;
62580;SDS011;48640;48.770;9.148;2023-05-10T02:23:21;2.78;;;0.35;;
62580;SDS011;48640;48.770;9.148;2023-05-10T02:25:50;0.45;;;0.35;;
62580;SDS011;48640;48.770;9.148;2023-05-10T02:28:19;0.70;;;0.30;;
62580;SDS011;48640;48.770;9.148;2023-05-10T02:30:49;2.03;;;0.20;;
62580;SDS011;48640;48.770;9.148;2023-05-10T02:33:17;0.47;;;0.40;;
62580;SDS011;48640;48.770;9.148;2023-05-10T02:35:46;0.65;;;0.30;;
62580;SDS011;48640;48.770;9.148;2023-05-10T02:38:14;2.22;;;0.75;;
62580;SDS011;48640;48.770;9.148;2023-05-10T02:40:43;1.58;;;0.32;;
62580;SDS011;48640;48.770;9.148;2023-05-10T02:43:12;5.07;;;1.38;;
62580;SDS011;48640;48.770;9.148;2023-05-10T02:45:41;1.60;;;0.80;;
62580;SDS011;48640;48.770;9.148;2023-05-10T02:48:09;0.45;;;0.38;;
62580;SDS011;48640;48.770;9.148;2023-05-10T02:50:36;1.63;;;0.30;;
62580;SDS011;48640;48.770;9.148;2023-05-10T02:53:09;1.45;;;0.45;;
62580;SDS011;48640;48.770;9.148;2023-05-10T02:55:41;0.65;;;0.45;;
62580;SDS011;48640;48.770;9.148;2023-05-10T02:58:12;2.63;;;0.52;;
62580;SDS011;48640;48.770;9.148;2023-05-10T03:00:39;2.28;;;0.68;;
62580;SDS011;48640;48.770;9.148;2023-05-10T03:03:06;1.48;;;0.65;;
62580;SDS011;48640;48.770;9.148;2023-05-10T03:05:33;0.88;;;0.38;;
62580;SDS011;48640;48.770;9.148;2023-05-10T03:08:00;0.95;;;0.45;;
62580;SDS011;48640;48.770;9.148;2023-05-10T03:10:29;0.23;;;0.23;;
62580;SDS011;48640;48.770;9.148;2023-05-10T03:13:05;1.13;;;0.50;;
62580;SDS011;48640;48.770;9.148;2023-05-10T03:15:37;0.60;;;0.60;;
62580;SDS011;48640;48.770;9.148;2023-05-10T03:18:12;2.05;;;0.50;;
62580;SDS011;48640;48.770;9.148;2023-05-10T03:20:46;0.73;;;0.60;;
62580;SDS011;48640;48.770;9.148;2023-05-10T03:23:19;0.85;;;0.50;;
62580;SDS011;48640;48.770;9.148;2023-05-10T03:25:49;0.57;;;0.43;;
62580;SDS011;48640;48.770;9.148;2023-05-10T03:28:18;1.98;;;0.57;;
62580;SDS011;48640;48.770;9.148;2023-05-10T03:30:46;1.35;;;0.73;;
62580;SDS011;48640;48.770;9.148;2023-05-10T03:33:13;0.85;;;0.52;;
62580;SDS011;48640;48.770;9.148;2023-05-10T03:35:40;1.25;;;0.68;;
62580;SDS011;48640;48.770;9.148;2023-05-10T03:38:09;1.20;;;0.70;;
62580;SDS011;48640;48.770;9.148;2023-05-10T03:40:35;1.55;;;0.60;;
62580;SDS011;48640;48.770;9.148;2023-05-10T03:43:03;1.48;;;0.70;;
62580;SDS011;48640;48.770;9.148;2023-05-10T03:45:31;1.08;;;0.70;;
62580;SDS011;48640;48.770;9.148;2023-05-10T03:47:58;3.08;;;0.80;;
62580;SDS011;48640;48.770;9.148;2023-05-10T03:50:25;1.83;;;0.80;;
62580;SDS011;48640;48.770;9.148;2023-05-10T03:52:52;3.92;;;1.00;;
62580;SDS011;48640;48.770;9.148;2023-05-10T03:55:19;1.63;;;0.80;;
62580;SDS011;48640;48.770;9.148;2023-05-10T03:57:46;1.33;;;0.77;;
62580;SDS011;48640;48.770;9.148;2023-05-10T04:00:14;1.15;;;0.60;;
62580;SDS011;48640;48.770;9.148;2023-05-10T04:02:43;2.38;;;0.85;;
62580;SDS011;48640;48.770;9.148;2023-05-10T04:05:10;1.17;;;0.70;;
62580;SDS011;48640;48.770;9.148;2023-05-10T04:07:37;2.80;;;1.00;;
62580;SDS011;48640;48.770;9.148;2023-05-10T04:10:04;2.08;;;1.00;;
62580;SDS011;48640;48.770;9.148;2023-05-10T04:12:32;4.07;;;1.13;;
62580;SDS011;48640;48.770;9.148;2023-05-10T04:14:58;2.15;;;0.93;;
62580;SDS011;48640;48.770;9.148;2023-05-10T04:17:26;2.95;;;1.00;;
62580;SDS011;48640;48.770;9.148;2023-05-10T04:19:54;2.85;;;1.00;;
62580;SDS011;48640;48.770;9.148;2023-05-10T04:22:21;1.90;;;0.90;;
62580;SDS011;48640;48.770;9.148;2023-05-10T04:24:48;2.13;;;1.00;;
62580;SDS011;48640;48.770;9.148;2023-05-10T04:27:15;2.55;;;1.33;;
62580;SDS011;48640;48.770;9.148;2023-05-10T04:29:42;2.92;;;1.20;;
62580;SDS011;48640;48.770;9.148;2023-05-10T04:32:08;1.95;;;0.90;;
62580;SDS011;48640;48.770;9.148;2023-05-10T04:34:36;2.30;;;0.90;;
62580;SDS011;48640;48.770;9.148;2023-05-10T04:37:04;2.75;;;1.00;;
62580;SDS011;48640;48.770;9.148;2023-05-10T04:39:32;1.60;;;0.77;;
62580;SDS011;48640;48.770;9.148;2023-05-10T04:41:59;2.40;;;1.17;;
62580;SDS011;48640;48.770;9.148;2023-05-10T04:44:25;2.45;;;1.23;;
62580;SDS011;48640;48.770;9.148;2023-05-10T04:46:52;1.98;;;0.90;;
62580;SDS011;48640;48.770;9.148;2023-05-10T04:49:19;2.13;;;1.00;;
62580;SDS011;48640;48.770;9.148;2023-05-10T04:51:46;2.67;;;1.20;;
62580;SDS011;48640;48.770;9.148;2023-05-10T04:54:14;3.05;;;0.90;;
62580;SDS011;48640;48.770;9.148;2023-05-10T04:56:41;1.77;;;0.90;;
62580;SDS011;48640;48.770;9.148;2023-05-10T04:59:08;2.40;;;0.85;;
62580;SDS011;48640;48.770;9.148;2023-05-10T05:01:35;1.75;;;0.82;;
62580;SDS011;48640;48.770;9.148;2023-05-10T05:04:02;2.33;;;0.90;;
62580;SDS011;48640;48.770;9.148;2023-05-10T05:06:30;1.80;;;0.90;;
62580;SDS011;48640;48.770;9.148;2023-05-10T05:08:56;3.60;;;0.93;;
62580;SDS011;48640;48.770;9.148;2023-05-10T05:11:24;1.73;;;1.00;;
62580;SDS011;48640;48.770;9.148;2023-05-10T05:13:51;1.92;;;0.98;;
62580;SDS011;48640;48.770;9.148;2023-05-10T05:16:18;1.73;;;0.98;;
62580;SDS011;48640;48.770;9.148;2023-05-10T05:18:45;2.20;;;0.88;;
62580;SDS011;48640;48.770;9.148;2023-05-10T05:21:15;2.20;;;1.30;;
62580;SDS011;48640;48.770;9.148;2023-05-10T05:26:08;2.35;;;1.05;;
62580;SDS011;48640;48.770;9.148;2023-05-10T05:28:37;2.67;;;0.80;;
62580;SDS011;48640;48.770;9.148;2023-05-10T05:31:04;2.55;;;0.98;;
62580;SDS011;48640;48.770;9.148;2023-05-10T05:33:31;2.38;;;1.23;;
62580;SDS011;48640;48.770;9.148;2023-05-10T05:36:00;1.58;;;0.75;;
62580;SDS011;48640;48.770;9.148;2023-05-10T05:38:27;2.60;;;1.10;;
62580;SDS011;48640;48.770;9.148;2023-05-10T05:40:54;1.73;;;0.90;;
62580;SDS011;48640;48.770;9.148;2023-05-10T05:43:21;3.83;;;1.20;;
62580;SDS011;48640;48.770;9.148;2023-05-10T05:45:49;2.25;;;1.02;;
62580;SDS011;48640;48.770;9.148;2023-05-10T05:48:18;2.25;;;1.13;;
62580;SDS011;48640;48.770;9.148;2023-05-10T05:50:45;1.65;;;0.90;;
62580;SDS011;48640;48.770;9.148;2023-05-10T05:53:11;2.50;;;1.10;;
62580;SDS011;48640;48.770;9.148;2023-05-10T05:55:38;2.85;;;1.05;;
62580;SDS011;48640;48.770;9.148;2023-05-10T05:58:05;3.17;;;1.33;;
62580;SDS011;48640;48.770;9.148;2023-05-10T06:00:32;6.15;;;1.17;;
62580;SDS011;48640;48.770;9.148;2023-05-10T06:03:00;3.42;;;1.13;;
62580;SDS011;48640;48.770;9.148;2023-05-10T06:05:27;4.60;;;1.17;;
62580;SDS011;48640;48.770;9.148;2023-05-10T06:07:53;3.88;;;1.02;;
62580;SDS011;48640;48.770;9.148;2023-05-10T06:10:22;2.80;;;1.52;;
62580;SDS011;48640;48.770;9.148;2023-05-10T06:15:17;2.78;;;1.15;;
62580;SDS011;48640;48.770;9.148;2023-05-10T06:17:44;1.98;;;1.15;;
62580;SDS011;48640;48.770;9.148;2023-05-10T06:20:13;1.70;;;0.90;;
62580;SDS011;48640;48.770;9.148;2023-05-10T06:22:40;2.25;;;1.10;;
62580;SDS011;48640;48.770;9.148;2023-05-10T06:25:08;4.38;;;1.05;;
62580;SDS011;48640;48.770;9.148;2023-05-10T06:27:36;2.40;;;1.00;;
62580;SDS011;48640;48.770;9.148;2023-05-10T06:30:03;2.60;;;1.15;;
62580;SDS011;48640;48.770;9.148;2023-05-10T06:32:31;3.58;;;1.20;;
62580;SDS011;48640;48.770;9.148;2023-05-10T06:34:57;3.35;;;1.30;;
62580;SDS011;48640;48.770;9.148;2023-05-10T06:37:26;2.17;;;1.00;;
62580;SDS011;48640;48.770;9.148;2023-05-10T06:39:53;2.42;;;1.58;;
62580;SDS011;48640;48.770;9.148;2023-05-10T06:42:20;3.88;;;1.48;;
62580;SDS011;48640;48.770;9.148;2023-05-10T06:44:46;4.22;;;1.20;;
62580;SDS011;48640;48.770;9.148;2023-05-10T06:47:13;4.05;;;1.42;;
62580;SDS011;48640;48.770;9.148;2023-05-10T06:49:40;2.38;;;0.90;;
62580;SDS011;48640;48.770;9.148;2023-05-10T06:52:07;1.95;;;1.00;;
62580;SDS011;48640;48.770;9.148;2023-05-10T06:54:35;3.33;;;1.00;;
62580;SDS011;48640;48.770;9.148;2023-05-10T06:57:02;2.30;;;1.20;;
62580;SDS011;48640;48.770;9.148;2023-05-10T06:59:29;2.65;;;1.10;;
62580;SDS011;48640;48.770;9.148;2023-05-10T07:01:56;2.28;;;0.98;;
62580;SDS011;48640;48.770;9.148;2023-05-10T07:04:22;3.22;;;1.52;;
62580;SDS011;48640;48.770;9.148;2023-05-10T07:06:49;3.30;;;1.08;;
62580;SDS011;48640;48.770;9.148;2023-05-10T07:09:16;2.90;;;1.50;;
62580;SDS011;48640;48.770;9.148;2023-05-10T07:11:44;3.55;;;1.33;;
62580;SDS011;48640;48.770;9.148;2023-05-10T07:14:11;2.38;;;1.15;;
62580;SDS011;48640;48.770;9.148;2023-05-10T07:16:38;1.58;;;0.90;;
62580;SDS011;48640;48.770;9.148;2023-05-10T07:19:05;3.53;;;1.90;;
62580;SDS011;48640;48.770;9.148;2023-05-10T07:21:32;3.17;;;1.10;;
62580;SDS011;48640;48.770;9.148;2023-05-10T07:24:00;2.17;;;1.00;;
62580;SDS011;48640;48.770;9.148;2023-05-10T07:26:26;1.88;;;0.93;;
62580;SDS011;48640;48.770;9.148;2023-05-10T07:28:55;3.15;;;1.20;;
62580;SDS011;48640;48.770;9.148;2023-05-10T07:31:22;1.77;;;1.00;;
62580;SDS011;48640;48.770;9.148;2023-05-10T07:33:48;3.03;;;1.00;;
62580;SDS011;48640;48.770;9.148;2023-05-10T07:36:15;2.50;;;1.10;;
62580;SDS011;48640;48.770;9.148;2023-05-10T07:38:42;3.03;;;1.20;;
62580;SDS011;48640;48.770;9.148;2023-05-10T07:41:09;2.00;;;1.00;;
62580;SDS011;48640;48.770;9.148;2023-05-10T07:43:37;2.03;;;1.13;;
62580;SDS011;48640;48.770;9.148;2023-05-10T07:46:06;1.92;;;0.93;;
62580;SDS011;48640;48.770;9.148;2023-05-10T07:48:35;4.43;;;0.95;;
62580;SDS011;48640;48.770;9.148;2023-05-10T07:51:02;2.10;;;0.95;;
62580;SDS011;48640;48.770;9.148;2023-05-10T07:53:29;2.63;;;0.57;;
62580;SDS011;48640;48.770;9.148;2023-05-10T07:55:57;2.20;;;0.90;;
62580;SDS011;48640;48.770;9.148;2023-05-10T07:58:24;2.88;;;0.80;;
62580;SDS011;48640;48.770;9.148;2023-05-10T08:00:51;1.52;;;0.60;;
62580;SDS011;48640;48.770;9.148;2023-05-10T08:03:19;1.23;;;0.60;;
62580;SDS011;48640;48.770;9.148;2023-05-10T08:05:46;1.30;;;0.60;;
62580;SDS011;48640;48.770;9.148;2023-05-10T08:08:13;0.73;;;0.52;;
62580;SDS011;48640;48.770;9.148;2023-05-10T08:10:40;1.73;;;0.60;;
62580;SDS011;48640;48.770;9.148;2023-05-10T08:13:06;2.58;;;0.68;;
62580;SDS011;48640;48.770;9.148;2023-05-10T08:15:33;2.67;;;0.82;;
62580;SDS011;48640;48.770;9.148;2023-05-10T08:18:00;1.30;;;0.68;;
62580;SDS011;48640;48.770;9.148;2023-05-10T08:20:28;2.47;;;0.70;;
62580;SDS011;48640;48.770;9.148;2023-05-10T08:22:55;0.95;;;0.57;;
62580;SDS011;48640;48.770;9.148;2023-05-10T08:25:21;3.03;;;1.15;;
62580;SDS011;48640;48.770;9.148;2023-05-10T08:27:48;1.40;;;0.52;;
62580;SDS011;48640;48.770;9.148;2023-05-10T08:30:15;2.85;;;0.50;;
62580;SDS011;48640;48.770;9.148;2023-05-10T08:32:42;2.67;;;0.80;;
62580;SDS011;48640;48.770;9.148;2023-05-10T08:35:09;1.52;;;0.73;;
62580;SDS011;48640;48.770;9.148;2023-05-10T08:37:37;2.45;;;0.60;;
62580;SDS011;48640;48.770;9.148;2023-05-10T08:40:04;1.05;;;0.47;;
62580;SDS011;48640;48.770;9.148;2023-05-10T08:42:33;1.92;;;0.50;;
62580;SDS011;48640;48.770;9.148;2023-05-10T08:45:03;1.42;;;0.68;;
62580;SDS011;48640;48.770;9.148;2023-05-10T08:47:31;1.58;;;0.80;;
62580;SDS011;48640;48.770;9.148;2023-05-10T08:49:58;0.60;;;0.40;;
62580;SDS011;48640;48.770;9.148;2023-05-10T08:54:57;2.63;;;0.60;;
62580;SDS011;48640;48.770;9.148;2023-05-10T08:57:24;1.40;;;0.73;;
62580;SDS011;48640;48.770;9.148;2023-05-10T08:59:51;1.40;;;0.73;;
62580;SDS011;48640;48.770;9.148;2023-05-10T09:02:18;1.80;;;0.70;;
62580;SDS011;48640;48.770;9.148;2023-05-10T09:04:47;1.85;;;0.60;;
62580;SDS011;48640;48.770;9.148;2023-05-10T09:07:14;0.73;;;0.50;;
62580;SDS011;48640;48.770;9.148;2023-05-10T09:09:41;0.93;;;0.50;;
62580;SDS011;48640;48.770;9.148;2023-05-10T09:12:09;2.05;;;0.60;;
62580;SDS011;48640;48.770;9.148;2023-05-10T09:14:37;1.45;;;0.77;;
62580;SDS011;48640;48.770;9.148;2023-05-10T09:17:04;0.77;;;0.55;;
62580;SDS011;48640;48.770;9.148;2023-05-10T09:19:31;1.60;;;0.75;;
62580;SDS011;48640;48.770;9.148;2023-05-10T09:21:58;1.98;;;0.77;;
62580;SDS011;48640;48.770;9.148;2023-05-10T09:24:29;1.08;;;0.60;;
62580;SDS011;48640;48.770;9.148;2023-05-10T09:26:57;2.75;;;1.17;;
62580;SDS011;48640;48.770;9.148;2023-05-10T09:29:25;1.10;;;0.50;;
62580;SDS011;48640;48.770;9.148;2023-05-10T09:31:52;1.20;;;0.65;;
62580;SDS011;48640;48.770;9.148;2023-05-10T09:34:20;1.90;;;0.75;;
62580;SDS011;48640;48.770;9.148;2023-05-10T09:36:55;1.48;;;0.50;;
62580;SDS011;48640;48.770;9.148;2023-05-10T09:39:32;0.55;;;0.40;;
62580;SDS011;48640;48.770;9.148;2023-05-10T09:42:01;1.48;;;0.50;;
62580;SDS011;48640;48.770;9.148;2023-05-10T09:44:31;2.72;;;0.65;;
62580;SDS011;48640;48.770;9.148;2023-05-10T09:46:58;2.58;;;0.55;;
62580;SDS011;48640;48.770;9.148;2023-05-10T09:49:25;2.72;;;0.73;;
62580;SDS011;48640;48.770;9.148;2023-05-10T09:52:02;1.15;;;0.50;;
62580;SDS011;48640;48.770;9.148;2023-05-10T09:54:30;1.45;;;0.45;;
62580;SDS011;48640;48.770;9.148;2023-05-10T09:56:57;1.40;;;0.80;;
62580;SDS011;48640;48.770;9.148;2023-05-10T09:59:24;1.42;;;0.45;;
62580;SDS011;48640;48.770;9.148;2023-05-10T10:01:53;1.00;;;0.57;;
62580;SDS011;48640;48.770;9.148;2023-05-10T10:04:22;3.38;;;0.70;;
62580;SDS011;48640;48.770;9.148;2023-05-10T10:06:58;1.35;;;0.50;;
62580;SDS011;48640;48.770;9.148;2023-05-10T10:09:25;1.70;;;0.60;;
62580;SDS011;48640;48.770;9.148;2023-05-10T10:11:53;1.40;;;0.50;;
62580;SDS011;48640;48.770;9.148;2023-05-10T10:14:21;0.98;;;0.60;;
62580;SDS011;48640;48.770;9.148;2023-05-10T10:16:48;0.93;;;0.50;;
62580;SDS011;48640;48.770;9.148;2023-05-10T10:19:17;0.63;;;0.40;;
62580;SDS011;48640;48.770;9.148;2023-05-10T10:21:44;1.17;;;0.50;;
62580;SDS011;48640;48.770;9.148;2023-05-10T10:24:11;4.22;;;1.30;;
62580;SDS011;48640;48.770;9.148;2023-05-10T10:26:37;1.13;;;0.45;;
62580;SDS011;48640;48.770;9.148;2023-05-10T10:31:40;2.20;;;0.50;;
62580;SDS011;48640;48.770;9.148;2023-05-10T10:34:16;1.67;;;0.60;;
62580;SDS011;48640;48.770;9.148;2023-05-10T10:39:18;1.27;;;0.43;;
62580;SDS011;48640;48.770;9.148;2023-05-10T10:41:50;0.60;;;0.28;;
62580;SDS011;48640;48.770;9.148;2023-05-10T10:44:36;1.75;;;0.40;;
62580;SDS011;48640;48.770;9.148;2023-05-10T10:47:09;1.95;;;0.57;;
62580;SDS011;48640;48.770;9.148;2023-05-10T10:50:03;3.67;;;0.50;;
62580;SDS011;48640;48.770;9.148;2023-05-10T10:52:32;1.42;;;0.50;;
62580;SDS011;48640;48.770;9.148;2023-05-10T10:55:01;1.27;;;0.50;;
62580;SDS011;48640;48.770;9.148;2023-05-10T10:57:35;1.80;;;0.50;;
62580;SDS011;48640;48.770;9.148;2023-05-10T11:00:19;4.32;;;0.65;;
62580;SDS011;48640;48.770;9.148;2023-05-10T11:02:49;1.20;;;0.50;;
62580;SDS011;48640;48.770;9.148;2023-05-10T11:08:08;1.98;;;0.80;;
62580;SDS011;48640;48.770;9.148;2023-05-10T11:10:36;1.42;;;0.60;;
62580;SDS011;48640;48.770;9.148;2023-05-10T11:13:04;2.60;;;0.40;;
62580;SDS011;48640;48.770;9.148;2023-05-10T11:15:32;1.35;;;0.40;;
62580;SDS011;48640;48.770;9.148;2023-05-10T11:18:00;1.75;;;0.60;;
62580;SDS011;48640;48.770;9.148;2023-05-10T11:20:45;1.00;;;0.40;;
62580;SDS011;48640;48.770;9.148;2023-05-10T11:23:16;2.17;;;0.50;;
62580;SDS011;48640;48.770;9.148;2023-05-10T11:25:44;1.95;;;0.50;;
62580;SDS011;48640;48.770;9.148;2023-05-10T11:28:12;1.77;;;0.60;;
62580;SDS011;48640;48.770;9.148;2023-05-10T11:30:39;0.50;;;0.30;;
62580;SDS011;48640;48.770;9.148;2023-05-10T11:33:06;1.40;;;0.57;;
62580;SDS011;48640;48.770;9.148;2023-05-10T11:35:37;1.45;;;0.57;;
62580;SDS011;48640;48.770;9.148;2023-05-10T11:38:06;1.98;;;0.60;;
62580;SDS011;48640;48.770;9.148;2023-05-10T11:40:33;1.03;;;0.40;;
62580;SDS011;48640;48.770;9.148;2023-05-10T11:43:00;2.10;;;0.50;;
62580;SDS011;48640;48.770;9.148;2023-05-10T11:45:28;1.23;;;0.60;;
62580;SDS011;48640;48.770;9.148;2023-05-10T11:47:56;2.30;;;0.63;;
62580;SDS011;48640;48.770;9.148;2023-05-10T11:50:24;1.35;;;0.63;;
62580;SDS011;48640;48.770;9.148;2023-05-10T11:52:51;1.95;;;0.70;;
62580;SDS011;48640;48.770;9.148;2023-05-10T11:55:19;0.60;;;0.40;;
62580;SDS011;48640;48.770;9.148;2023-05-10T11:57:46;1.50;;;0.43;;
62580;SDS011;48640;48.770;9.148;2023-05-10T12:00:13;2.17;;;0.52;;
62580;SDS011;48640;48.770;9.148;2023-05-10T12:02:41;1.05;;;0.50;;
62580;SDS011;48640;48.770;9.148;2023-05-10T12:05:08;2.30;;;0.73;;
62580;SDS011;48640;48.770;9.148;2023-05-10T12:07:35;4.47;;;1.65;;
62580;SDS011;48640;48.770;9.148;2023-05-10T12:10:03;2.03;;;0.68;;
62580;SDS011;48640;48.770;9.148;2023-05-10T12:12:39;2.25;;;0.82;;
62580;SDS011;48640;48.770;9.148;2023-05-10T12:15:10;1.02;;;0.63;;
62580;SDS011;48640;48.770;9.148;2023-05-10T12:17:38;4.53;;;0.88;;
62580;SDS011;48640;48.770;9.148;2023-05-10T12:20:15;3.08;;;0.52;;
62580;SDS011;48640;48.770;9.148;2023-05-10T12:22:46;12.15;;;2.25;;
62580;SDS011;48640;48.770;9.148;2023-05-10T12:25:13;3.05;;;0.80;;
62580;SDS011;48640;48.770;9.148;2023-05-10T12:27:42;3.55;;;0.70;;
62580;SDS011;48640;48.770;9.148;2023-05-10T12:30:18;1.65;;;0.77;;
62580;SDS011;48640;48.770;9.148;2023-05-10T12:32:47;1.20;;;0.52;;
62580;SDS011;48640;48.770;9.148;2023-05-10T12:35:13;1.75;;;0.60;;
62580;SDS011;48640;48.770;9.148;2023-05-10T12:37:41;1.30;;;0.60;;
62580;SDS011;48640;48.770;9.148;2023-05-10T12:40:09;1.70;;;0.73;;
62580;SDS011;48640;48.770;9.148;2023-05-10T12:42:37;2.30;;;0.80;;
62580;SDS011;48640;48.770;9.148;2023-05-10T12:45:07;1.52;;;0.65;;
62580;SDS011;48640;48.770;9.148;2023-05-10T12:47:34;2.15;;;0.70;;
62580;SDS011;48640;48.770;9.148;2023-05-10T12:50:01;3.17;;;0.73;;
62580;SDS011;48640;48.770;9.148;2023-05-10T12:52:29;2.10;;;0.70;;
62580;SDS011;48640;48.770;9.148;2023-05-10T12:54:57;2.85;;;0.90;;
62580;SDS011;48640;48.770;9.148;2023-05-10T12:57:26;2.20;;;0.70;;
62580;SDS011;48640;48.770;9.148;2023-05-10T12:59:53;2.47;;;0.80;;
62580;SDS011;48640;48.770;9.148;2023-05-10T13:02:22;2.88;;;0.82;;
62580;SDS011;48640;48.770;9.148;2023-05-10T13:04:49;1.25;;;0.70;;
62580;SDS011;48640;48.770;9.148;2023-05-10T13:07:16;1.58;;;0.70;;
62580;SDS011;48640;48.770;9.148;2023-05-10T13:09:43;3.33;;;1.10;;
62580;SDS011;48640;48.770;9.148;2023-05-10T13:12:10;3.03;;;0.82;;
62580;SDS011;48640;48.770;9.148;2023-05-10T13:14:37;2.50;;;1.15;;
62580;SDS011;48640;48.770;9.148;2023-05-10T13:17:05;4.03;;;1.33;;
62580;SDS011;48640;48.770;9.148;2023-05-10T13:19:33;3.20;;;0.77;;
62580;SDS011;48640;48.770;9.148;2023-05-10T13:22:00;3.38;;;1.02;;
62580;SDS011;48640;48.770;9.148;2023-05-10T13:24:27;2.53;;;0.80;;
62580;SDS011;48640;48.770;9.148;2023-05-10T13:26:54;2.00;;;0.43;;
62580;SDS011;48640;48.770;9.148;2023-05-10T13:29:20;3.13;;;0.80;;
62580;SDS011;48640;48.770;9.148;2023-05-10T13:31:47;2.13;;;0.90;;
62580;SDS011;48640;48.770;9.148;2023-05-10T13:34:14;1.73;;;0.80;;
62580;SDS011;48640;48.770;9.148;2023-05-10T13:36:43;2.60;;;0.70;;
62580;SDS011;48640;48.770;9.148;2023-05-10T13:39:10;2.05;;;0.88;;
62580;SDS011;48640;48.770;9.148;2023-05-10T13:41:37;2.85;;;0.90;;
62580;SDS011;48640;48.770;9.148;2023-05-10T13:44:04;1.80;;;0.93;;
62580;SDS011;48640;48.770;9.148;2023-05-10T13:46:30;3.22;;;0.80;;
62580;SDS011;48640;48.770;9.148;2023-05-10T13:48:57;1.52;;;0.80;;
62580;SDS011;48640;48.770;9.148;2023-05-10T13:51:24;2.05;;;0.57;;
62580;SDS011;48640;48.770;9.148;2023-05-10T13:53:52;3.30;;;1.00;;
62580;SDS011;48640;48.770;9.148;2023-05-10T13:56:19;2.17;;;0.80;;
62580;SDS011;48640;48.770;9.148;2023-05-10T13:58:45;3.88;;;0.73;;
62580;SDS011;48640;48.770;9.148;2023-05-10T14:01:12;1.55;;;0.82;;
62580;SDS011;48640;48.770;9.148;2023-05-10T14:03:40;2.97;;;0.93;;
62580;SDS011;48640;48.770;9.148;2023-05-10T14:06:07;2.05;;;0.73;;
62580;SDS011;48640;48.770;9.148;2023-05-10T14:08:34;2.25;;;0.80;;
62580;SDS011;48640;48.770;9.148;2023-05-10T14:11:03;1.10;;;0.50;;
62580;SDS011;48640;48.770;9.148;2023-05-10T14:13:30;1.50;;;0.60;;
62580;SDS011;48640;48.770;9.148;2023-05-10T14:15:56;1.23;;;0.70;;
62580;SDS011;48640;48.770;9.148;2023-05-10T14:18:25;3.80;;;0.70;;
62580;SDS011;48640;48.770;9.148;2023-05-10T14:20:52;1.80;;;0.65;;
62580;SDS011;48640;48.770;9.148;2023-05-10T14:23:19;5.72;;;0.70;;
62580;SDS011;48640;48.770;9.148;2023-05-10T14:25:49;1.75;;;0.70;;
62580;SDS011;48640;48.770;9.148;2023-05-10T14:28:17;1.13;;;0.65;;
62580;SDS011;48640;48.770;9.148;2023-05-10T14:30:45;2.05;;;0.60;;
62580;SDS011;48640;48.770;9.148;2023-05-10T14:33:12;1.92;;;0.70;;
62580;SDS011;48640;48.770;9.148;2023-05-10T14:35:39;1.73;;;1.05;;
62580;SDS011;48640;48.770;9.148;2023-05-10T14:38:06;4.40;;;2.20;;
62580;SDS011;48640;48.770;9.148;2023-05-10T14:40:33;2.38;;;1.00;;
62580;SDS011;48640;48.770;9.148;2023-05-10T14:42:59;1.40;;;0.68;;
62580;SDS011;48640;48.770;9.148;2023-05-10T14:45:28;1.50;;;0.52;;
62580;SDS011;48640;48.770;9.148;2023-05-10T14:47:55;2.17;;;0.63;;
62580;SDS011;48640;48.770;9.148;2023-05-10T14:50:21;1.80;;;0.57;;
62580;SDS011;48640;48.770;9.148;2023-05-10T14:52:48;1.98;;;0.50;;
62580;SDS011;48640;48.770;9.148;2023-05-10T14:55:15;2.00;;;0.50;;
62580;SDS011;48640;48.770;9.148;2023-05-10T14:57:42;1.95;;;0.60;;
62580;SDS011;48640;48.770;9.148;2023-05-10T15:00:12;0.65;;;0.43;;
62580;SDS011;48640;48.770;9.148;2023-05-10T15:02:41;4.50;;;0.70;;
62580;SDS011;48640;48.770;9.148;2023-05-10T15:05:08;2.17;;;0.60;;
62580;SDS011;48640;48.770;9.148;2023-05-10T15:07:35;4.90;;;0.73;;
62580;SDS011;48640;48.770;9.148;2023-05-10T15:10:02;3.03;;;0.75;;
62580;SDS011;48640;48.770;9.148;2023-05-10T15:12:29;1.73;;;0.60;;